Time;durP1;ratioP1;P1;durP2;ratioP2;P2;SDS_P1;SDS_P2;PMS_P1;PMS_P2;Temp;Humidity;BMP_temperature;BMP_pressure;BME280_temperature;BME280_humidity;BME280_pressure;Samples;Min_cycle;Max_cycle;Signal;HPM_P1;HPM_P2
2022/09/26 00:01:41;;;;;;;74.20;27.70;;;11.20;99.90;;;;;;5038568;28;20188;-82
2022/09/26 00:04:27;;;;;;;73.60;24.98;;;11.20;99.90;;;;;;5038371;28;20400;-83
2022/09/26 00:06:54;;;;;;;70.78;19.70;;;11.20;99.90;;;;;;5038855;28;20176;-83
2022/09/26 00:09:21;;;;;;;71.38;17.75;;;11.10;99.90;;;;;;5020349;28;20242;-83
2022/09/26 00:11:47;;;;;;;70.30;12.45;;;11.10;99.90;;;;;;5038280;28;20168;-83
2022/09/26 00:14:25;;;;;;;68.80;12.07;;;11.10;99.90;;;;;;5038535;28;20161;-83
2022/09/26 00:16:51;;;;;;;72.50;24.08;;;11.10;99.90;;;;;;5020613;28;20760;-83
2022/09/26 00:19:17;;;;;;;77.60;30.98;;;10.90;99.90;;;;;;5037958;28;20192;-83
2022/09/26 00:21:43;;;;;;;75.10;17.67;;;10.90;99.90;;;;;;5037961;28;20165;-82
2022/09/26 00:24:08;;;;;;;76.37;24.07;;;11.00;99.90;;;;;;5037920;28;20170;-81
2022/09/26 00:26:35;;;;;;;73.00;25.90;;;11.00;99.90;;;;;;5037757;28;20161;-83
2022/09/26 00:29:06;;;;;;;69.68;18.42;;;11.10;99.90;;;;;;5037949;28;20537;-83
2022/09/26 00:31:34;;;;;;;76.57;34.92;;;11.10;99.90;;;;;;5038576;28;20154;-82
2022/09/26 00:34:00;;;;;;;79.57;37.92;;;11.00;99.90;;;;;;5037846;28;20708;-83
2022/09/26 00:36:27;;;;;;;78.53;40.75;;;11.00;99.90;;;;;;5038403;28;20624;-82
2022/09/26 00:38:53;;;;;;;81.28;32.40;;;11.00;99.90;;;;;;5037585;28;20220;-83
2022/09/26 00:41:19;;;;;;;74.93;33.30;;;10.90;99.90;;;;;;5020117;28;20620;-83
2022/09/26 00:43:51;;;;;;;80.70;36.30;;;10.80;99.90;;;;;;5037505;28;20166;-83
2022/09/26 00:46:41;;;;;;;82.55;39.03;;;10.70;99.90;;;;;;5037633;28;20165;-82
2022/09/26 00:49:24;;;;;;;77.32;35.85;;;10.70;99.90;;;;;;5019872;28;20185;-83
2022/09/26 00:52:19;;;;;;;78.75;41.33;;;10.70;99.90;;;;;;5037832;28;20179;-82
2022/09/26 00:54:50;;;;;;;77.60;39.15;;;10.70;99.90;;;;;;5037600;28;20188;-83
2022/09/26 00:57:29;;;;;;;78.90;35.75;;;10.70;99.90;;;;;;5020570;28;20606;-82
2022/09/26 00:59:59;;;;;;;78.10;40.20;;;10.70;99.90;;;;;;5035971;28;20215;-83
2022/09/26 01:02:27;;;;;;;83.13;41.60;;;10.70;99.90;;;;;;5037582;28;20141;-83
2022/09/26 01:04:54;;;;;;;76.32;36.15;;;10.60;99.90;;;;;;5037250;28;20157;-82
2022/09/26 01:07:22;;;;;;;77.47;36.10;;;10.60;99.90;;;;;;5037356;28;20686;-83
2022/09/26 01:09:49;;;;;;;78.28;37.17;;;10.60;99.90;;;;;;5019164;28;20540;-82
2022/09/26 01:12:15;;;;;;;78.05;41.53;;;10.70;99.90;;;;;;5037321;28;20169;-83
2022/09/26 01:14:44;;;;;;;77.32;31.50;;;10.70;99.90;;;;;;5019115;28;20537;-83
2022/09/26 01:17:10;;;;;;;77.45;36.10;;;10.70;99.90;;;;;;5019152;28;20175;-82
2022/09/26 01:19:49;;;;;;;80.80;41.95;;;10.70;99.90;;;;;;5036865;28;20262;-83
2022/09/26 01:22:34;;;;;;;80.53;36.97;;;10.80;99.90;;;;;;5036800;28;20157;-83
2022/09/26 01:25:21;;;;;;;74.40;31.80;;;10.80;99.90;;;;;;5037759;28;20141;-83
2022/09/26 01:28:09;;;;;;;75.75;27.98;;;10.70;99.90;;;;;;5018986;28;20185;-82
2022/09/26 01:30:59;;;;;;;73.35;22.60;;;10.70;99.90;;;;;;5016584;28;20190;-83
2022/09/26 01:33:42;;;;;;;73.70;25.92;;;10.80;99.90;;;;;;5036989;28;20145;-82
2022/09/26 01:36:11;;;;;;;76.40;27.40;;;10.90;99.90;;;;;;5037277;28;20631;-82
2022/09/26 01:39:17;;;;;;;73.55;22.73;;;10.90;99.90;;;;;;5019487;28;20568;-83
2022/09/26 01:41:57;;;;;;;77.72;22.42;;;11.00;99.90;;;;;;5036807;28;20636;-82
2022/09/26 01:44:40;;;;;;;73.53;25.48;;;11.00;99.90;;;;;;5018969;28;20651;-83
2022/09/26 01:47:15;;;;;;;72.97;23.05;;;11.00;99.90;;;;;;5036607;28;20142;-82
2022/09/26 01:50:21;;;;;;;74.10;22.13;;;11.10;99.90;;;;;;5036816;28;20155;-82
2022/09/26 01:52:56;;;;;;;74.00;21.25;;;11.10;99.90;;;;;;5018657;28;20636;-83
2022/09/26 01:55:30;;;;;;;74.13;25.67;;;11.10;99.90;;;;;;5036163;28;20212;-83
2022/09/26 01:58:04;;;;;;;69.70;17.40;;;11.20;99.90;;;;;;5018659;28;20193;-83
2022/09/26 02:00:31;;;;;;;73.05;19.17;;;11.20;99.90;;;;;;5036795;28;20144;-82
2022/09/26 02:02:59;;;;;;;71.88;17.58;;;11.10;99.90;;;;;;5036489;28;20161;-83
2022/09/26 02:05:34;;;;;;;70.78;16.08;;;11.20;99.90;;;;;;5036157;28;20165;-83
2022/09/26 02:08:12;;;;;;;74.82;18.30;;;11.10;99.90;;;;;;5036594;28;20556;-82
2022/09/26 02:11:02;;;;;;;79.95;20.17;;;11.20;99.90;;;;;;5035967;28;20153;-82
2022/09/26 02:13:34;;;;;;;74.95;17.77;;;11.30;99.90;;;;;;5035814;28;20169;-83
2022/09/26 02:16:11;;;;;;;72.80;22.90;;;11.30;99.90;;;;;;5036738;28;20240;-83
2022/09/26 02:18:44;;;;;;;72.35;21.42;;;11.30;99.90;;;;;;5036048;28;20279;-83
2022/09/26 02:21:19;;;;;;;71.88;20.55;;;11.30;99.90;;;;;;5018423;28;20617;-82
2022/09/26 02:23:50;;;;;;;71.18;20.65;;;11.30;99.90;;;;;;5036631;28;20149;-82
2022/09/26 02:26:16;;;;;;;74.90;20.60;;;11.30;99.90;;;;;;5017988;28;20176;-83
2022/09/26 02:28:42;;;;;;;71.47;19.50;;;11.40;99.90;;;;;;5035756;28;20212;-83
2022/09/26 02:31:10;;;;;;;71.07;18.13;;;11.40;99.90;;;;;;5035734;28;20169;-83
2022/09/26 02:33:36;;;;;;;76.30;19.08;;;11.30;99.90;;;;;;5018160;28;20435;-83
2022/09/26 02:36:06;;;;;;;72.30;19.40;;;11.30;99.90;;;;;;5035560;28;20157;-83
2022/09/26 02:38:33;;;;;;;75.97;17.52;;;11.30;99.90;;;;;;5017951;28;20874;-83
2022/09/26 02:41:22;;;;;;;75.25;21.65;;;11.40;99.90;;;;;;5035925;28;20161;-83
2022/09/26 02:43:50;;;;;;;71.80;16.65;;;11.40;99.90;;;;;;5035834;28;20149;-83
2022/09/26 02:46:37;;;;;;;74.68;17.95;;;11.30;99.90;;;;;;5018364;28;20171;-83
2022/09/26 02:49:23;;;;;;;73.57;22.08;;;11.40;99.90;;;;;;5036492;28;20636;-83
2022/09/26 02:52:10;;;;;;;75.70;25.23;;;11.40;99.90;;;;;;5036738;28;20189;-83
2022/09/26 02:55:01;;;;;;;74.90;27.73;;;11.30;99.90;;;;;;5035908;28;20234;-83
2022/09/26 02:57:31;;;;;;;84.50;40.97;;;11.40;99.90;;;;;;5036084;28;20181;-83
2022/09/26 03:00:08;;;;;;;75.40;28.05;;;11.50;99.90;;;;;;5036174;28;20177;-83
2022/09/26 03:03:08;;;;;;;75.57;27.92;;;11.40;99.90;;;;;;5018107;28;20612;-83
2022/09/26 03:05:36;;;;;;;74.50;24.38;;;11.40;99.90;;;;;;5017588;28;20223;-83
2022/09/26 03:08:07;;;;;;;72.47;21.05;;;11.30;99.90;;;;;;5035921;28;20184;-83
2022/09/26 03:10:33;;;;;;;74.20;20.40;;;11.30;99.90;;;;;;5017907;28;20173;-83
2022/09/26 03:13:14;;;;;;;73.55;18.10;;;11.30;99.90;;;;;;5035634;28;20248;-83
2022/09/26 03:15:44;;;;;;;73.97;24.80;;;11.30;99.90;;;;;;5035343;28;20532;-83
2022/09/26 03:18:15;;;;;;;75.10;20.88;;;11.40;99.90;;;;;;5035848;28;20557;-83
2022/09/26 03:20:41;;;;;;;80.32;23.60;;;11.30;99.90;;;;;;5035622;28;20227;-83
2022/09/26 03:23:07;;;;;;;75.53;23.63;;;11.30;99.90;;;;;;5034960;28;20157;-83
2022/09/26 03:25:32;;;;;;;80.80;26.93;;;11.30;99.90;;;;;;5035133;28;21003;-83
2022/09/26 03:28:01;;;;;;;73.80;23.20;;;11.30;99.90;;;;;;5017305;28;20493;-83
2022/09/26 03:30:28;;;;;;;79.47;26.10;;;11.30;99.90;;;;;;5017962;28;20179;-83
2022/09/26 03:32:54;;;;;;;74.85;19.63;;;11.30;99.90;;;;;;5035145;28;20180;-82
2022/09/26 03:35:20;;;;;;;75.28;18.73;;;11.20;99.90;;;;;;5034870;28;20165;-82
2022/09/26 03:37:46;;;;;;;76.40;17.80;;;11.20;99.90;;;;;;5034650;28;20660;-83
2022/09/26 03:40:12;;;;;;;80.90;25.13;;;11.30;99.90;;;;;;5017113;28;20490;-82
2022/09/26 03:42:38;;;;;;;74.30;19.77;;;11.30;99.90;;;;;;5035775;28;20192;-82
2022/09/26 03:45:07;;;;;;;75.47;18.93;;;11.30;99.90;;;;;;5035166;28;20396;-82
2022/09/26 03:47:33;;;;;;;73.28;13.95;;;11.20;99.90;;;;;;5034797;28;20469;-82
2022/09/26 03:49:59;;;;;;;78.75;15.00;;;11.10;99.90;;;;;;5016897;28;20636;-82
2022/09/26 03:52:25;;;;;;;77.47;14.63;;;11.10;99.90;;;;;;5017873;28;20169;-83
2022/09/26 03:54:55;;;;;;;74.35;15.68;;;11.20;99.90;;;;;;5034332;28;20188;-83
2022/09/26 03:57:20;;;;;;;77.63;15.43;;;11.20;99.90;;;;;;5034252;28;20200;-82
2022/09/26 03:59:46;;;;;;;76.73;14.00;;;11.20;99.90;;;;;;5016828;28;20193;-82
2022/09/26 04:02:12;;;;;;;75.43;15.13;;;11.20;99.90;;;;;;5034849;28;20244;-82
2022/09/26 04:04:38;;;;;;;78.53;14.65;;;11.20;99.90;;;;;;5017087;28;20215;-83
2022/09/26 04:07:04;;;;;;;74.28;13.43;;;11.20;99.90;;;;;;5016756;28;20176;-81
2022/09/26 04:09:30;;;;;;;78.27;15.47;;;11.20;99.90;;;;;;5034678;28;20174;-82
2022/09/26 04:11:55;;;;;;;77.07;14.80;;;11.20;99.90;;;;;;5034672;28;20677;-82
2022/09/26 04:14:21;;;;;;;72.87;14.00;;;11.20;99.90;;;;;;5034600;28;20166;-82
2022/09/26 04:16:47;;;;;;;74.28;14.70;;;11.20;99.90;;;;;;5034426;28;20172;-83
2022/09/26 04:19:14;;;;;;;75.40;17.57;;;11.20;99.90;;;;;;5034038;28;20197;-82
2022/09/26 04:21:40;;;;;;;80.78;15.35;;;11.20;99.90;;;;;;5016671;28;20180;-82
2022/09/26 04:24:11;;;;;;;75.70;16.58;;;11.20;99.90;;;;;;5034249;28;20169;-82
2022/09/26 04:26:42;;;;;;;74.88;14.77;;;11.20;99.90;;;;;;5017282;28;20656;-82
2022/09/26 04:29:09;;;;;;;74.90;15.15;;;11.20;99.90;;;;;;5034131;28;20719;-82
2022/09/26 04:31:35;;;;;;;82.38;16.35;;;11.10;99.90;;;;;;5016637;28;20182;-82
2022/09/26 04:34:01;;;;;;;74.43;15.45;;;11.20;99.90;;;;;;5034155;28;20184;-82
2022/09/26 04:36:27;;;;;;;76.25;13.85;;;11.20;99.90;;;;;;5037884;28;20161;-82
2022/09/26 04:38:53;;;;;;;72.60;12.60;;;11.10;99.90;;;;;;5038121;28;20196;-82
2022/09/26 04:41:20;;;;;;;76.37;14.47;;;11.10;99.90;;;;;;5020410;28;20603;-82
2022/09/26 04:43:47;;;;;;;75.03;15.80;;;11.20;99.90;;;;;;5037994;28;20153;-80
2022/09/26 04:46:15;;;;;;;74.50;13.88;;;11.20;99.90;;;;;;5020913;28;20176;-81
2022/09/26 04:48:42;;;;;;;77.28;20.55;;;11.30;99.90;;;;;;5037454;28;20739;-83
2022/09/26 04:51:10;;;;;;;75.47;21.90;;;11.40;99.90;;;;;;5037731;28;20556;-82
2022/09/26 04:53:37;;;;;;;78.07;23.70;;;11.40;99.90;;;;;;5020798;28;20177;-83
2022/09/26 04:56:06;;;;;;;80.10;26.67;;;11.30;99.90;;;;;;5109883;22;20220;-86
2022/09/26 04:58:32;;;;;;;74.70;18.95;;;11.30;99.90;;;;;;5050599;28;20194;-86
2022/09/26 05:01:06;;;;;;;80.10;21.93;;;11.20;99.90;;;;;;5042446;28;20224;-86
2022/09/26 05:03:32;;;;;;;74.97;17.17;;;11.30;99.90;;;;;;5042859;28;20177;-84
2022/09/26 05:05:58;;;;;;;79.27;22.70;;;11.20;99.90;;;;;;5043114;28;20169;-84
2022/09/26 05:08:24;;;;;;;80.13;27.47;;;11.30;99.90;;;;;;5025416;28;20510;-84
2022/09/26 05:10:56;;;;;;;84.13;33.95;;;11.30;99.90;;;;;;5043274;28;20161;-84
2022/09/26 05:13:23;;;;;;;81.35;33.40;;;11.40;99.90;;;;;;5043099;28;20161;-84
2022/09/26 05:15:53;;;;;;;81.43;34.92;;;11.40;99.90;;;;;;5042708;28;20521;-84
2022/09/26 05:18:19;;;;;;;85.18;40.42;;;11.40;99.90;;;;;;5041491;28;20203;-84
2022/09/26 05:20:49;;;;;;;90.30;33.85;;;11.40;99.90;;;;;;5041852;28;20244;-84
2022/09/26 05:26:19;;;;;;;83.88;31.92;;;11.30;99.90;;;;;;5043576;28;20204;-84
2022/09/26 05:28:53;;;;;;;85.90;30.05;;;11.40;99.90;;;;;;5042329;28;20185;-84
2022/09/26 05:31:19;;;;;;;81.88;33.17;;;11.30;99.90;;;;;;5042428;28;20153;-84
2022/09/26 05:33:45;;;;;;;83.68;31.13;;;11.30;99.90;;;;;;5041931;28;20185;-84
2022/09/26 05:36:14;;;;;;;81.35;34.40;;;11.30;99.90;;;;;;5043059;28;20244;-84
2022/09/26 05:38:40;;;;;;;82.28;28.85;;;11.40;99.90;;;;;;5044445;28;20196;-84
2022/09/26 05:41:05;;;;;;;84.17;34.60;;;11.50;99.90;;;;;;5042587;28;20161;-83
2022/09/26 05:43:32;;;;;;;87.73;33.80;;;11.40;99.90;;;;;;5043568;28;20169;-83
2022/09/26 05:46:03;;;;;;;98.63;34.58;;;11.40;99.90;;;;;;5042355;28;20569;-84
2022/09/26 05:48:31;;;;;;;84.80;34.38;;;11.30;99.90;;;;;;5042900;28;20192;-83
2022/09/26 05:51:02;;;;;;;82.15;32.72;;;11.40;99.90;;;;;;5042974;28;20197;-83
2022/09/26 05:53:28;;;;;;;85.40;37.25;;;11.40;99.90;;;;;;5044541;28;20209;-84
2022/09/26 05:55:54;;;;;;;80.13;33.90;;;11.40;99.90;;;;;;5041796;28;20188;-84
2022/09/26 05:58:19;;;;;;;79.83;32.00;;;11.50;99.90;;;;;;5043506;28;20946;-84
2022/09/26 06:00:50;;;;;;;83.00;35.17;;;11.50;99.90;;;;;;5042311;28;20165;-84
2022/09/26 06:03:16;;;;;;;79.65;37.10;;;11.50;99.90;;;;;;5026222;28;20157;-84
2022/09/26 06:05:42;;;;;;;83.30;38.93;;;11.50;99.90;;;;;;5042652;28;20592;-83
2022/09/26 06:08:13;;;;;;;85.70;43.65;;;11.50;99.90;;;;;;5043053;28;20192;-84
2022/09/26 06:10:39;;;;;;;84.25;48.88;;;11.60;99.90;;;;;;5043274;28;20209;-84
2022/09/26 06:13:05;;;;;;;83.67;47.37;;;11.70;99.90;;;;;;5043525;28;20188;-84
2022/09/26 06:15:30;;;;;;;80.15;38.70;;;11.70;99.90;;;;;;5042977;28;20399;-84
2022/09/26 06:18:03;;;;;;;80.60;35.40;;;11.80;99.90;;;;;;5042669;28;20196;-84
2022/09/26 06:20:32;;;;;;;75.60;25.85;;;11.80;99.90;;;;;;5043901;28;20145;-84
2022/09/26 06:23:01;;;;;;;73.82;23.95;;;11.90;99.90;;;;;;5026966;28;20312;-84
2022/09/26 06:25:28;;;;;;;75.65;25.73;;;11.90;99.90;;;;;;5043995;28;20165;-84
2022/09/26 06:27:55;;;;;;;75.72;19.38;;;11.90;99.90;;;;;;5044063;28;20185;-84
2022/09/26 06:30:22;;;;;;;77.45;26.90;;;11.90;99.90;;;;;;5042897;28;20201;-84
2022/09/26 06:32:51;;;;;;;70.70;16.33;;;12.00;99.90;;;;;;5042905;28;20162;-83
2022/09/26 06:35:18;;;;;;;70.43;14.35;;;12.10;99.90;;;;;;5042121;28;20233;-84
2022/09/26 06:37:44;;;;;;;69.65;12.73;;;12.30;99.90;;;;;;5043099;28;20575;-84
2022/09/26 06:40:10;;;;;;;69.13;12.30;;;12.40;99.90;;;;;;5024630;28;20176;-84
2022/09/26 06:42:37;;;;;;;68.65;12.68;;;12.50;99.90;;;;;;5043036;28;20403;-84
2022/09/26 06:45:07;;;;;;;68.68;10.05;;;12.50;99.90;;;;;;5043287;28;20185;-83
2022/09/26 06:47:33;;;;;;;71.70;12.10;;;12.60;99.90;;;;;;5025037;28;20189;-84
2022/09/26 06:50:00;;;;;;;68.97;13.70;;;12.60;99.90;;;;;;5043655;28;20235;-83
2022/09/26 06:52:26;;;;;;;68.85;11.40;;;12.70;99.90;;;;;;5042612;28;20225;-83
2022/09/26 06:54:55;;;;;;;70.60;11.70;;;12.80;99.90;;;;;;5042788;28;20241;-84
2022/09/26 06:57:21;;;;;;;68.22;11.65;;;12.70;99.90;;;;;;5043280;28;20426;-84
2022/09/26 06:59:47;;;;;;;68.43;8.95;;;12.70;99.90;;;;;;5043540;28;20197;-83
2022/09/26 07:02:15;;;;;;;65.33;5.67;;;12.80;99.90;;;;;;5043287;28;20179;-83
2022/09/26 07:04:41;;;;;;;67.40;6.65;;;12.90;99.90;;;;;;5043498;28;20396;-83
2022/09/26 07:07:07;;;;;;;67.43;5.50;;;12.90;99.90;;;;;;5042692;28;20175;-83
2022/09/26 07:09:33;;;;;;;64.97;6.07;;;12.90;99.90;;;;;;5043106;28;20165;-84
2022/09/26 07:11:59;;;;;;;65.40;5.30;;;12.90;99.90;;;;;;5041557;28;20411;-83
2022/09/26 07:14:25;;;;;;;71.43;5.82;;;12.90;99.90;;;;;;5041267;28;20157;-83
2022/09/26 07:16:51;;;;;;;69.37;5.77;;;12.80;99.90;;;;;;5040250;28;20223;-83
2022/09/26 07:19:17;;;;;;;67.47;6.00;;;12.90;99.90;;;;;;5039025;28;20205;-83
2022/09/26 07:21:43;;;;;;;68.72;6.53;;;12.90;99.90;;;;;;5040664;28;20426;-84
2022/09/26 07:24:12;;;;;;;69.20;5.43;;;12.90;99.90;;;;;;5041763;28;20215;-84
2022/09/26 07:26:40;;;;;;;67.07;5.85;;;12.90;99.90;;;;;;5043628;28;20187;-84
2022/09/26 07:29:06;;;;;;;65.47;5.82;;;12.90;99.90;;;;;;5044772;28;20209;-83
2022/09/26 07:31:31;;;;;;;64.93;6.40;;;12.80;99.90;;;;;;5042294;28;20223;-83
2022/09/26 07:33:57;;;;;;;64.60;5.30;;;12.80;99.90;;;;;;5043392;28;20404;-84
2022/09/26 07:36:23;;;;;;;64.70;5.97;;;12.80;99.90;;;;;;5044473;28;20165;-84
2022/09/26 07:38:49;;;;;;;67.77;5.83;;;12.80;99.90;;;;;;5042556;28;20205;-84
2022/09/26 07:41:15;;;;;;;64.60;5.32;;;12.80;99.90;;;;;;5040948;28;20169;-84
2022/09/26 07:43:41;;;;;;;65.30;6.15;;;12.90;99.90;;;;;;5041784;28;20161;-84
2022/09/26 07:51:37;;;;;;;68.30;5.40;;;13.10;99.90;;;;;;5041881;28;20683;-84
2022/09/26 07:54:04;;;;;;;69.32;8.00;;;13.00;99.90;;;;;;5043790;28;20419;-84
2022/09/26 07:56:32;;;;;;;72.13;7.18;;;12.90;99.90;;;;;;5043226;28;20165;-84
2022/09/26 07:59:02;;;;;;;67.05;7.78;;;13.00;99.90;;;;;;5041831;28;20299;-84
2022/09/26 08:01:28;;;;;;;67.03;6.50;;;12.90;99.90;;;;;;5039422;28;20195;-84
2022/09/26 08:03:56;;;;;;;66.32;6.78;;;13.00;99.90;;;;;;5023781;28;20169;-84
2022/09/26 08:06:22;;;;;;;67.80;6.45;;;12.90;99.90;;;;;;5023281;28;20521;-85
2022/09/26 08:08:51;;;;;;;68.20;7.57;;;13.00;99.90;;;;;;5039048;28;20195;-85
2022/09/26 08:11:19;;;;;;;65.68;7.00;;;13.10;99.90;;;;;;5044567;28;20177;-85
2022/09/26 08:13:45;;;;;;;66.97;8.95;;;12.90;99.90;;;;;;5042542;28;20196;-84
2022/09/26 08:16:22;;;;;;;68.40;8.20;;;12.80;99.90;;;;;;5044069;28;20169;-85
2022/09/26 08:18:48;;;;;;;65.82;8.02;;;12.70;99.90;;;;;;5042763;28;20192;-85
2022/09/26 08:21:17;;;;;;;68.07;8.00;;;12.90;99.90;;;;;;5044545;28;20269;-85
2022/09/26 08:23:44;;;;;;;68.85;7.78;;;12.90;99.90;;;;;;5046427;28;20483;-85
2022/09/26 08:26:09;;;;;;;66.97;8.07;;;12.70;99.90;;;;;;5044940;28;20161;-84
2022/09/26 08:28:36;;;;;;;67.97;9.20;;;12.60;99.90;;;;;;5044055;28;20187;-84
2022/09/26 08:31:03;;;;;;;66.22;9.13;;;12.70;99.90;;;;;;5042964;28;20180;-83
2022/09/26 08:33:34;;;;;;;68.55;13.02;;;12.60;99.90;;;;;;5042041;28;20655;-84
2022/09/26 08:36:11;;;;;;;72.40;17.05;;;12.50;99.90;;;;;;5042181;28;20160;-83
2022/09/26 08:38:37;;;;;;;72.22;26.08;;;12.60;99.90;;;;;;5025382;28;20193;-83
2022/09/26 08:44:52;;;;;;;78.80;41.45;;;12.60;99.90;;;;;;5044202;28;20205;-86
2022/09/26 08:47:42;;;;;;;73.97;25.17;;;12.40;99.90;;;;;;5024580;28;20540;-86
2022/09/26 08:50:42;;;;;;;73.55;30.75;;;12.60;99.90;;;;;;5042817;28;20180;-86
2022/09/26 08:53:27;;;;;;;75.32;32.60;;;12.70;99.90;;;;;;5058682;28;20185;-85
2022/09/26 08:56:02;;;;;;;77.45;34.85;;;12.60;99.90;;;;;;5024328;28;20283;-86
2022/09/26 08:58:55;;;;;;;82.73;48.53;;;12.70;99.90;;;;;;5041345;28;20204;-86
2022/09/26 09:01:46;;;;;;;77.75;40.85;;;12.60;99.90;;;;;;5041847;28;20716;-86
2022/09/26 09:04:24;;;;;;;80.38;37.38;;;12.70;99.90;;;;;;5042297;28;20145;-86
2022/09/26 09:07:04;;;;;;;76.93;37.42;;;12.70;99.90;;;;;;5023565;28;20542;-85
2022/09/26 09:09:37;;;;;;;80.00;41.20;;;12.80;99.90;;;;;;5025633;28;20188;-86
2022/09/26 09:12:17;;;;;;;75.10;36.88;;;12.70;99.90;;;;;;5040011;28;20161;-86
2022/09/26 09:15:25;;;;;;;75.40;35.55;;;12.70;99.90;;;;;;5041580;28;20145;-86
2022/09/26 09:18:29;;;;;;;75.03;34.00;;;12.70;99.90;;;;;;5002730;28;20210;-86
2022/09/26 09:21:15;;;;;;;72.57;23.00;;;12.60;99.90;;;;;;5042016;28;20400;-86
2022/09/26 09:23:44;;;;;;;73.35;20.98;;;12.60;99.90;;;;;;5042631;28;20168;-86
2022/09/26 09:26:31;;;;;;;73.05;19.48;;;12.50;99.90;;;;;;5044172;28;20207;-86
2022/09/26 09:29:18;;;;;;;67.47;12.05;;;12.50;99.90;;;;;;5045881;28;20185;-86
2022/09/26 09:31:45;;;;;;;70.90;12.98;;;12.30;99.90;;;;;;5044417;28;20605;-86
2022/09/26 09:34:26;;;;;;;69.13;15.02;;;12.50;99.90;;;;;;5027909;28;20177;-87
2022/09/26 09:36:58;;;;;;;73.43;17.90;;;12.50;99.90;;;;;;5043119;28;20169;-86
2022/09/26 09:39:35;;;;;;;69.53;15.38;;;12.50;99.90;;;;;;5043889;28;20255;-84
2022/09/26 09:42:19;;;;;;;72.20;18.37;;;12.60;99.90;;;;;;5043817;28;20157;-84
2022/09/26 09:44:54;;;;;;;73.05;13.85;;;12.70;99.90;;;;;;5042872;28;20474;-85
2022/09/26 09:47:20;;;;;;;70.13;20.70;;;12.70;99.90;;;;;;5044864;28;20547;-85
2022/09/26 09:49:50;;;;;;;69.18;18.80;;;12.90;99.90;;;;;;5045194;28;20182;-84
2022/09/26 09:52:37;;;;;;;73.18;22.48;;;13.00;99.90;;;;;;5045408;28;20162;-84
2022/09/26 09:55:25;;;;;;;70.80;20.58;;;13.00;99.90;;;;;;5041661;28;20184;-84
2022/09/26 09:58:28;;;;;;;69.60;19.45;;;13.10;99.90;;;;;;5042761;28;20251;-85
2022/09/26 10:01:41;;;;;;;70.73;21.77;;;13.00;99.90;;;;;;5024525;28;20220;-86
2022/09/26 10:04:26;;;;;;;71.60;23.87;;;13.10;99.90;;;;;;5020738;28;20415;-86
2022/09/26 10:06:54;;;;;;;73.87;23.23;;;13.10;99.90;;;;;;5041429;28;20400;-84
2022/09/26 10:09:28;;;;;;;72.55;24.10;;;13.10;99.90;;;;;;5041543;28;20511;-84
2022/09/26 10:11:55;;;;;;;73.57;20.60;;;13.10;99.90;;;;;;5024679;28;20165;-84
2022/09/26 10:14:37;;;;;;;71.80;21.00;;;13.10;99.90;;;;;;5039599;28;20441;-83
2022/09/26 10:17:09;;;;;;;71.95;20.65;;;13.20;99.90;;;;;;5045029;28;20150;-85
2022/09/26 10:19:37;;;;;;;72.38;20.23;;;13.10;99.90;;;;;;5045427;28;20185;-84
2022/09/26 10:22:24;;;;;;;71.60;18.43;;;13.10;99.90;;;;;;5045708;28;20153;-84
2022/09/26 10:24:57;;;;;;;70.05;17.67;;;13.10;99.90;;;;;;5044402;28;20372;-85
2022/09/26 10:27:39;;;;;;;70.33;16.60;;;13.20;99.90;;;;;;5046373;28;20181;-86
2022/09/26 10:30:20;;;;;;;68.27;15.40;;;13.20;99.90;;;;;;5045151;28;20884;-86
2022/09/26 10:32:54;;;;;;;69.80;16.20;;;13.20;99.90;;;;;;5044188;28;20384;-85
2022/09/26 10:35:28;;;;;;;68.37;16.50;;;13.30;99.90;;;;;;5043149;28;20425;-84
2022/09/26 10:38:02;;;;;;;68.80;16.57;;;13.40;99.90;;;;;;5025469;28;20520;-84
2022/09/26 10:40:47;;;;;;;69.10;15.87;;;13.50;99.90;;;;;;5043405;28;20403;-84
2022/09/26 10:43:24;;;;;;;68.80;16.50;;;13.40;99.90;;;;;;5044510;28;20380;-85
2022/09/26 10:45:53;;;;;;;69.50;15.27;;;13.20;99.90;;;;;;5024526;28;20949;-85
2022/09/26 10:48:25;;;;;;;68.80;15.30;;;13.30;99.90;;;;;;5025228;28;20430;-87
2022/09/26 10:50:59;;;;;;;68.93;17.27;;;13.30;99.90;;;;;;5043408;28;20380;-85
2022/09/26 10:53:26;;;;;;;70.03;18.08;;;13.20;99.90;;;;;;5030294;28;20404;-85
2022/09/26 10:56:00;;;;;;;69.50;19.20;;;13.20;99.90;;;;;;5109229;22;20284;-84
2022/09/26 10:58:28;;;;;;;69.67;16.03;;;13.20;99.90;;;;;;5033470;28;20485;-83
2022/09/26 11:00:58;;;;;;;70.10;17.97;;;13.30;99.90;;;;;;5034073;28;20418;-83
2022/09/26 11:03:33;;;;;;;68.37;15.03;;;13.40;99.90;;;;;;5035232;28;20443;-82
2022/09/26 11:05:59;;;;;;;69.70;19.03;;;13.30;99.90;;;;;;5033568;28;20490;-83
2022/09/26 11:08:36;;;;;;;69.03;19.70;;;13.50;99.90;;;;;;5034066;28;20913;-83
2022/09/26 11:11:10;;;;;;;73.60;29.33;;;13.40;99.90;;;;;;5035031;28;20388;-83
2022/09/26 11:14:03;;;;;;;74.40;30.73;;;13.40;99.90;;;;;;5034759;28;20464;-83
2022/09/26 11:16:47;;;;;;;72.53;30.33;;;13.50;99.90;;;;;;5029104;28;20412;-84
2022/09/26 11:19:47;;;;;;;74.23;34.00;;;13.50;99.90;;;;;;5034655;28;20447;-83
2022/09/26 11:22:29;;;;;;;79.10;49.03;;;13.70;99.90;;;;;;5034348;28;20408;-83
2022/09/26 11:25:30;;;;;;;79.70;45.10;;;13.70;99.90;;;;;;5034558;28;20384;-84
2022/09/26 11:28:07;;;;;;;80.77;40.87;;;13.60;99.90;;;;;;5034916;28;20838;-82
2022/09/26 11:30:39;;;;;;;74.67;38.10;;;13.70;99.90;;;;;;5034998;28;20426;-83
2022/09/26 11:33:10;;;;;;;74.20;34.50;;;13.70;99.90;;;;;;5034827;28;20403;-83
2022/09/26 11:36:04;;;;;;;77.20;42.23;;;13.70;99.90;;;;;;5033786;28;20396;-82
2022/09/26 11:38:40;;;;;;;77.40;42.50;;;13.80;99.90;;;;;;5034454;28;20444;-83
2022/09/26 11:41:35;;;;;;;71.90;27.70;;;14.00;99.90;;;;;;5034706;28;20379;-82
2022/09/26 11:44:39;;;;;;;69.70;20.37;;;14.00;99.90;;;;;;5032692;28;20408;-82
2022/09/26 11:47:05;;;;;;;66.30;12.10;;;14.00;99.90;;;;;;5034229;28;20380;-82
2022/09/26 11:50:11;;;;;;;65.90;7.70;;;14.10;99.90;;;;;;5034777;28;20462;-82
2022/09/26 11:52:48;;;;;;;63.97;6.47;;;14.10;99.90;;;;;;5029486;28;20189;-81
2022/09/26 11:55:23;;;;;;;65.97;8.80;;;14.40;99.90;;;;;;5033067;28;20445;-82
2022/09/26 11:58:03;;;;;;;68.03;5.40;;;14.20;99.90;;;;;;5034192;28;20431;-82
2022/09/26 12:00:47;;;;;;;68.23;11.10;;;14.30;99.90;;;;;;5033284;28;20474;-82
2022/09/26 12:03:32;;;;;;;66.67;7.10;;;14.30;99.90;;;;;;5034179;28;20392;-82
2022/09/26 12:06:06;;;;;;;64.37;7.87;;;14.20;99.90;;;;;;5033394;28;20882;-83
2022/09/26 12:09:00;;;;;;;63.70;6.27;;;14.30;99.90;;;;;;5033031;28;20834;-83
2022/09/26 12:11:51;;;;;;;66.30;5.90;;;14.10;99.90;;;;;;5034819;28;20383;-81
2022/09/26 12:14:38;;;;;;;65.17;5.90;;;14.10;99.90;;;;;;5034296;28;20372;-82
2022/09/26 12:17:34;;;;;;;66.03;7.30;;;14.10;99.90;;;;;;5033112;28;20411;-82
2022/09/26 12:20:25;;;;;;;65.13;6.13;;;14.10;99.90;;;;;;5034897;28;20514;-82
2022/09/26 12:23:13;;;;;;;65.20;7.10;;;14.00;99.90;;;;;;5034569;28;20467;-83
2022/09/26 12:25:56;;;;;;;66.70;6.13;;;14.00;99.90;;;;;;5034034;28;20387;-82
2022/09/26 12:28:56;;;;;;;64.00;5.83;;;13.90;99.90;;;;;;5034256;28;20484;-82
2022/09/26 12:31:30;;;;;;;67.00;6.03;;;13.80;99.90;;;;;;5034530;28;20391;-82
2022/09/26 12:34:18;;;;;;;65.90;6.40;;;13.80;99.90;;;;;;5034348;28;20379;-82
2022/09/26 12:36:49;;;;;;;64.37;5.43;;;13.80;99.90;;;;;;5034265;28;20408;-82
2022/09/26 12:39:26;;;;;;;65.97;5.33;;;13.80;99.90;;;;;;5034236;28;20448;-82
2022/09/26 12:42:10;;;;;;;64.30;6.47;;;13.80;99.90;;;;;;5033322;28;20408;-82
2022/09/26 12:44:58;;;;;;;65.67;6.23;;;14.00;99.90;;;;;;5034328;28;20880;-82
2022/09/26 12:47:42;;;;;;;64.27;5.30;;;13.90;99.90;;;;;;5034859;28;20417;-82
2022/09/26 12:50:10;;;;;;;67.40;5.80;;;13.90;99.90;;;;;;5034624;28;20395;-84
2022/09/26 12:52:55;;;;;;;64.67;5.97;;;14.00;99.90;;;;;;5034618;28;20400;-82
2022/09/26 12:55:48;;;;;;;69.77;5.60;;;14.10;99.90;;;;;;5035071;28;20484;-83
2022/09/26 12:58:45;;;;;;;64.60;6.77;;;14.20;99.90;;;;;;5037276;28;22327;-82
2022/09/26 13:01:43;;;;;;;67.10;5.13;;;14.10;99.90;;;;;;5037604;28;20392;-83
2022/09/26 13:04:30;;;;;;;63.47;5.47;;;13.80;99.90;;;;;;5037397;28;20381;-83
2022/09/26 13:07:17;;;;;;;65.40;5.77;;;13.70;99.90;;;;;;5037167;28;20388;-83
2022/09/26 13:10:20;;;;;;;67.93;8.10;;;13.60;99.90;;;;;;5037428;28;20420;-83
2022/09/26 13:13:01;;;;;;;66.63;8.40;;;13.60;99.90;;;;;;5035695;28;20420;-83
2022/09/26 13:15:38;;;;;;;67.40;8.20;;;13.60;99.90;;;;;;5035849;28;20403;-83